createdAt,value
2018-09-14T00:00:54.349Z,15.50
2018-09-14T00:03:31.012Z,15.50
2018-09-14T00:06:07.950Z,15.50
2018-09-14T00:08:44.174Z,15.50
2018-09-14T00:11:21.224Z,15.60
2018-09-14T00:13:57.988Z,15.50
2018-09-14T00:16:33.880Z,15.50
2018-09-14T00:19:10.273Z,15.50
2018-09-14T00:21:46.498Z,15.60
2018-09-14T00:24:23.314Z,15.50
2018-09-14T00:26:59.166Z,15.50
2018-09-14T00:29:36.352Z,15.50
2018-09-14T00:32:13.503Z,15.60
2018-09-14T00:34:50.615Z,15.50
2018-09-14T00:37:27.854Z,15.50
2018-09-14T00:40:05.960Z,15.50
2018-09-14T00:42:41.496Z,15.40
2018-09-14T00:45:19.758Z,15.40
2018-09-14T00:47:56.160Z,15.40
2018-09-14T00:50:32.700Z,15.40
2018-09-14T00:53:08.904Z,15.40
2018-09-14T00:55:45.869Z,15.40
2018-09-14T00:58:22.764Z,15.40
2018-09-14T01:00:59.704Z,15.40
2018-09-14T01:03:35.996Z,15.40
2018-09-14T01:06:12.721Z,15.40
2018-09-14T01:08:49.369Z,15.40
2018-09-14T01:11:27.349Z,15.30
2018-09-14T01:14:04.445Z,15.30
2018-09-14T01:16:41.125Z,15.30
2018-09-14T01:19:18.109Z,15.30
2018-09-14T01:21:55.236Z,15.30
2018-09-14T01:24:30.999Z,15.30
2018-09-14T01:27:07.877Z,15.30
2018-09-14T01:29:44.148Z,15.30
2018-09-14T01:32:21.254Z,15.30
2018-09-14T01:35:00.359Z,15.30
2018-09-14T01:37:35.931Z,15.20
2018-09-14T01:40:11.781Z,15.20
2018-09-14T01:42:48.556Z,15.30
2018-09-14T01:45:26.312Z,15.30
2018-09-14T01:48:02.005Z,15.30
2018-09-14T01:50:37.734Z,15.30
2018-09-14T01:53:15.617Z,15.40
2018-09-14T01:55:52.362Z,15.30
2018-09-14T01:58:28.813Z,15.40
2018-09-14T02:01:06.549Z,15.40
2018-09-14T02:03:44.972Z,15.40
2018-09-14T02:06:21.353Z,15.40
2018-09-14T02:08:57.499Z,15.40
2018-09-14T02:11:33.824Z,15.40
2018-09-14T02:14:11.516Z,15.40
2018-09-14T02:16:47.499Z,15.30
2018-09-14T02:19:23.662Z,15.30
2018-09-14T02:21:59.288Z,15.30
2018-09-14T02:24:37.909Z,15.40
2018-09-14T02:27:15.231Z,15.30
2018-09-14T02:29:51.565Z,15.30
2018-09-14T02:32:27.930Z,15.30
2018-09-14T02:35:03.552Z,15.30
2018-09-14T02:37:39.397Z,15.30
2018-09-14T02:40:15.364Z,15.40
2018-09-14T02:42:51.854Z,15.40
2018-09-14T02:45:27.924Z,15.40
2018-09-14T02:48:04.477Z,15.40
2018-09-14T02:50:40.858Z,15.40
2018-09-14T02:53:17.210Z,15.40
2018-09-14T02:55:53.675Z,15.40
2018-09-14T02:58:30.121Z,15.40
2018-09-14T03:01:07.681Z,15.30
2018-09-14T03:03:44.581Z,15.30
2018-09-14T03:06:20.645Z,15.30
2018-09-14T03:08:57.494Z,15.40
2018-09-14T03:11:33.819Z,15.40
2018-09-14T03:14:10.595Z,15.30
2018-09-14T03:16:48.340Z,15.30
2018-09-14T03:19:27.209Z,15.30
2018-09-14T03:22:03.746Z,15.20
2018-09-14T03:24:40.071Z,15.20
2018-09-14T03:27:19.306Z,15.30
2018-09-14T03:29:55.390Z,15.30
2018-09-14T03:32:32.618Z,15.30
2018-09-14T03:35:08.632Z,15.20
2018-09-14T03:37:44.793Z,15.20
2018-09-14T03:40:21.420Z,15.20
2018-09-14T03:42:58.282Z,15.20
2018-09-14T03:45:37.678Z,15.20
2018-09-14T03:48:14.401Z,15.20
2018-09-14T03:50:50.591Z,15.20
2018-09-14T03:53:27.517Z,15.20
2018-09-14T03:56:04.514Z,15.20
2018-09-14T03:58:42.560Z,15.20
2018-09-14T04:01:18.413Z,15.30
2018-09-14T04:03:56.451Z,15.20
2018-09-14T04:06:33.259Z,15.20
2018-09-14T04:09:11.148Z,15.20
2018-09-14T04:11:47.251Z,15.20
2018-09-14T04:14:24.328Z,15.10
2018-09-14T04:17:00.702Z,15.20
2018-09-14T04:19:36.754Z,15.20
2018-09-14T04:22:13.458Z,15.10
2018-09-14T04:24:49.369Z,15.10
2018-09-14T04:27:25.913Z,15.10
2018-09-14T04:30:02.255Z,15.10
2018-09-14T04:32:39.059Z,15.10
2018-09-14T04:35:16.332Z,15.20
2018-09-14T04:37:52.934Z,15.30
2018-09-14T04:40:29.941Z,15.20
2018-09-14T04:43:06.143Z,15.10
2018-09-14T04:45:42.966Z,15.00
2018-09-14T04:48:20.671Z,15.10
2018-09-14T04:50:59.478Z,15.10
2018-09-14T04:53:35.808Z,15.10
2018-09-14T04:56:14.487Z,15.00
2018-09-14T04:58:51.482Z,15.10
2018-09-14T05:01:28.844Z,15.10
2018-09-14T05:04:05.488Z,15.00
2018-09-14T05:06:42.212Z,15.00
2018-09-14T05:09:20.221Z,15.00
2018-09-14T05:11:56.256Z,15.00
2018-09-14T05:14:32.014Z,15.00
2018-09-14T05:17:08.295Z,15.00
2018-09-14T05:19:44.557Z,14.90
2018-09-14T05:22:21.739Z,14.90
2018-09-14T05:24:57.366Z,14.90
2018-09-14T05:27:33.784Z,14.90
2018-09-14T05:30:09.624Z,14.90
2018-09-14T05:32:45.690Z,14.80
2018-09-14T05:35:23.211Z,14.80
2018-09-14T05:37:59.823Z,14.90
2018-09-14T05:40:36.428Z,14.90
2018-09-14T05:43:12.874Z,14.90
2018-09-14T05:45:49.364Z,14.90
2018-09-14T05:48:25.483Z,14.90
2018-09-14T05:51:02.089Z,14.90
2018-09-14T05:53:39.301Z,14.90
2018-09-14T05:56:17.464Z,15.00
2018-09-14T05:58:54.170Z,15.00
2018-09-14T06:01:30.682Z,15.00
2018-09-14T06:04:07.052Z,15.00
2018-09-14T06:06:43.483Z,15.10
2018-09-14T06:09:20.073Z,15.00
2018-09-14T06:11:56.151Z,15.00
2018-09-14T06:14:33.897Z,15.00
2018-09-14T06:17:10.712Z,15.00
2018-09-14T06:19:47.809Z,14.90
2018-09-14T06:22:24.490Z,14.90
2018-09-14T06:25:02.005Z,14.90
2018-09-14T06:27:38.245Z,15.00
2018-09-14T06:30:15.659Z,15.10
2018-09-14T06:32:52.397Z,15.20
2018-09-14T06:35:28.964Z,15.30
2018-09-14T06:38:06.349Z,15.40
2018-09-14T06:40:45.520Z,15.50
2018-09-14T06:43:21.501Z,15.60
2018-09-14T06:45:59.996Z,15.50
2018-09-14T06:48:36.531Z,15.50
2018-09-14T06:51:12.705Z,15.50
2018-09-14T06:53:49.321Z,15.50
2018-09-14T06:56:26.247Z,15.50
2018-09-14T06:59:03.532Z,15.50
2018-09-14T07:01:42.134Z,15.50
2018-09-14T07:04:18.363Z,15.40
2018-09-14T07:06:54.922Z,15.40
2018-09-14T07:09:31.390Z,15.50
2018-09-14T07:12:07.353Z,15.60
2018-09-14T07:14:43.473Z,15.70
2018-09-14T07:17:20.073Z,15.70
2018-09-14T07:19:56.060Z,15.70
2018-09-14T07:22:31.842Z,15.80
2018-09-14T07:25:08.751Z,15.70
2018-09-14T07:27:45.224Z,15.70
2018-09-14T07:30:21.757Z,15.60
2018-09-14T07:32:58.526Z,15.40
2018-09-14T07:35:36.630Z,15.40
2018-09-14T07:38:12.805Z,15.50
2018-09-14T07:40:49.027Z,15.50
2018-09-14T07:43:26.621Z,15.60
2018-09-14T07:46:05.005Z,15.70
2018-09-14T07:48:41.543Z,15.70
2018-09-14T07:51:21.158Z,15.60
2018-09-14T07:53:58.318Z,15.60
2018-09-14T07:56:35.504Z,15.60
2018-09-14T07:59:11.546Z,15.90
2018-09-14T08:01:48.205Z,15.90
2018-09-14T08:04:26.128Z,16.00
2018-09-14T08:07:03.546Z,15.90
2018-09-14T08:09:41.348Z,15.70
2018-09-14T08:12:17.384Z,15.80
2018-09-14T08:14:54.735Z,15.70
2018-09-14T08:17:31.436Z,15.60
2018-09-14T08:20:07.718Z,15.70
2018-09-14T08:22:44.159Z,15.80
2018-09-14T08:25:20.508Z,15.80
2018-09-14T08:27:57.424Z,15.70
2018-09-14T08:30:34.030Z,15.70
2018-09-14T08:33:11.040Z,15.60
2018-09-14T08:35:47.481Z,15.50
2018-09-14T08:38:24.520Z,15.70
2018-09-14T08:41:00.861Z,15.60
2018-09-14T08:43:38.416Z,15.60
2018-09-14T08:46:15.484Z,15.60
2018-09-14T08:48:51.553Z,15.60
2018-09-14T08:51:27.236Z,15.80
2018-09-14T08:54:04.260Z,15.70
2018-09-14T08:56:42.513Z,15.70
2018-09-14T08:59:18.471Z,15.70
2018-09-14T09:01:54.160Z,15.60
2018-09-14T09:04:30.014Z,15.60
2018-09-14T09:07:07.354Z,15.60
2018-09-14T09:09:43.836Z,15.60
2018-09-14T09:12:20.644Z,15.70
2018-09-14T09:14:57.036Z,15.70
2018-09-14T09:17:33.922Z,15.80
2018-09-14T09:20:11.554Z,15.80
2018-09-14T09:22:48.877Z,15.80
2018-09-14T09:25:26.261Z,15.70
2018-09-14T09:28:04.221Z,15.80
2018-09-14T09:30:41.451Z,16.00
2018-09-14T09:33:21.002Z,15.90
2018-09-14T09:36:00.456Z,15.80
2018-09-14T09:38:39.056Z,15.90
2018-09-14T09:41:17.373Z,16.00
2018-09-14T09:43:54.319Z,16.20
2018-09-14T09:46:30.879Z,16.50
2018-09-14T09:49:09.596Z,16.80
2018-09-14T09:51:47.005Z,16.80
2018-09-14T09:54:24.622Z,16.90
2018-09-14T09:57:01.208Z,17.00
2018-09-14T09:59:37.448Z,17.10
2018-09-14T10:02:19.702Z,17.30
2018-09-14T10:05:01.463Z,17.40
2018-09-14T10:07:39.821Z,17.50
2018-09-14T10:10:15.764Z,17.80
2018-09-14T10:12:53.561Z,18.10
2018-09-14T10:15:31.438Z,18.40
2018-09-14T10:18:07.638Z,18.60
2018-09-14T10:20:44.225Z,18.60
2018-09-14T10:23:20.386Z,18.50
2018-09-14T10:25:56.752Z,18.30
2018-09-14T10:28:32.731Z,18.20
2018-09-14T10:31:09.988Z,18.20
2018-09-14T10:33:46.862Z,18.30
2018-09-14T10:36:23.337Z,18.30
2018-09-14T10:39:01.408Z,18.40
2018-09-14T10:41:38.699Z,18.60
2018-09-14T10:44:14.650Z,18.60
2018-09-14T10:46:50.628Z,18.70
2018-09-14T10:49:27.312Z,18.90
2018-09-14T10:52:03.985Z,19.30
2018-09-14T10:54:42.069Z,19.50
2018-09-14T10:57:20.099Z,19.80
2018-09-14T10:59:57.046Z,19.70
2018-09-14T11:02:33.239Z,19.60
2018-09-14T11:05:10.486Z,19.20
2018-09-14T11:07:47.393Z,19.10
2018-09-14T11:10:23.545Z,19.00
2018-09-14T11:13:00.635Z,18.80
2018-09-14T11:15:38.196Z,18.70
2018-09-14T11:18:14.433Z,18.50
2018-09-14T11:20:50.391Z,18.40
2018-09-14T11:23:26.960Z,18.60
2018-09-14T11:26:04.625Z,18.50
2018-09-14T11:28:41.741Z,18.30
2018-09-14T11:31:18.069Z,18.30
2018-09-14T11:33:55.064Z,18.50
2018-09-14T11:36:31.700Z,18.80
2018-09-14T11:39:10.135Z,19.10
2018-09-14T11:41:46.526Z,19.10
2018-09-14T11:44:22.392Z,19.30
2018-09-14T11:46:58.700Z,19.20
2018-09-14T11:49:35.227Z,19.20
2018-09-14T11:52:13.176Z,19.20
2018-09-14T11:54:50.914Z,18.90
2018-09-14T11:57:28.031Z,18.70
2018-09-14T12:00:09.185Z,18.80
2018-09-14T12:02:50.380Z,18.80
2018-09-14T12:05:30.845Z,18.80
2018-09-14T12:08:11.331Z,18.60
2018-09-14T12:10:52.037Z,18.60
2018-09-14T12:13:34.004Z,18.60
2018-09-14T12:16:14.662Z,18.60
2018-09-14T12:18:55.504Z,18.50
2018-09-14T12:21:36.927Z,18.50
2018-09-14T12:24:17.828Z,18.60
2018-09-14T12:26:58.745Z,18.60
2018-09-14T12:29:39.213Z,18.70
2018-09-14T12:32:20.858Z,18.80
2018-09-14T12:35:01.362Z,18.80
2018-09-14T12:37:41.809Z,18.90
2018-09-14T12:40:23.089Z,18.90
2018-09-14T12:43:04.079Z,18.80
2018-09-14T12:45:45.050Z,18.70
2018-09-14T12:48:25.820Z,18.70
2018-09-14T12:51:07.753Z,18.80
2018-09-14T12:53:48.614Z,18.80
2018-09-14T12:56:30.264Z,18.90
2018-09-14T12:59:11.305Z,19.10
2018-09-14T13:01:52.219Z,19.20
2018-09-14T13:04:33.035Z,19.10
2018-09-14T13:07:13.868Z,19.00
2018-09-14T13:09:55.658Z,19.00
2018-09-14T13:12:36.108Z,19.00
2018-09-14T13:15:17.057Z,19.00
2018-09-14T13:17:58.249Z,18.80
2018-09-14T13:20:39.081Z,18.80
2018-09-14T13:23:19.689Z,18.80
2018-09-14T13:26:01.657Z,18.70
2018-09-14T13:28:42.561Z,18.80
2018-09-14T13:31:23.327Z,18.70
2018-09-14T13:34:03.723Z,18.70
2018-09-14T13:36:44.632Z,18.70
2018-09-14T13:39:26.043Z,18.80
2018-09-14T13:42:06.908Z,18.80
2018-09-14T13:44:47.695Z,18.90
2018-09-14T13:47:28.794Z,19.20
2018-09-14T13:50:09.616Z,19.20
2018-09-14T13:52:50.599Z,19.30
2018-09-14T13:55:31.716Z,19.20
2018-09-14T13:58:12.156Z,19.10
2018-09-14T14:00:52.802Z,19.20
2018-09-14T14:03:33.372Z,19.20
2018-09-14T14:06:14.413Z,19.20
2018-09-14T14:08:55.642Z,19.10
2018-09-14T14:11:36.748Z,19.10
2018-09-14T14:14:18.431Z,19.10
2018-09-14T14:16:59.192Z,19.40
2018-09-14T14:19:39.812Z,19.70
2018-09-14T14:22:20.798Z,19.80
2018-09-14T14:25:03.934Z,19.80
2018-09-14T14:27:44.977Z,19.80
2018-09-14T14:30:26.262Z,20.20
2018-09-14T14:33:07.596Z,21.50
2018-09-14T14:35:48.619Z,22.90
2018-09-14T14:38:29.588Z,24.10
2018-09-14T14:41:11.053Z,24.80
2018-09-14T14:43:51.981Z,24.60
2018-09-14T14:46:37.425Z,24.50
2018-09-14T14:49:18.583Z,24.30
2018-09-14T14:52:00.285Z,23.80
2018-09-14T14:54:41.684Z,22.90
2018-09-14T14:57:24.509Z,22.30
2018-09-14T15:00:05.062Z,21.80
2018-09-14T15:02:46.410Z,21.30
2018-09-14T15:05:26.944Z,20.60
2018-09-14T15:08:09.928Z,20.40
2018-09-14T15:10:50.914Z,20.70
2018-09-14T15:13:32.026Z,21.10
2018-09-14T15:16:13.189Z,21.00
2018-09-14T15:18:54.544Z,20.60
2018-09-14T15:21:35.561Z,20.50
2018-09-14T15:24:16.847Z,20.30
2018-09-14T15:26:57.925Z,20.00
2018-09-14T15:29:38.484Z,20.00
2018-09-14T15:32:19.704Z,19.90
2018-09-14T15:35:00.563Z,19.90
2018-09-14T15:37:41.054Z,19.70
2018-09-14T15:40:22.111Z,19.50
2018-09-14T15:43:03.943Z,19.30
2018-09-14T15:45:44.701Z,19.20
2018-09-14T15:48:25.151Z,19.20
2018-09-14T15:51:05.612Z,19.10
2018-09-14T15:53:46.426Z,18.90
2018-09-14T15:56:27.804Z,18.80
2018-09-14T15:59:10.342Z,18.80
2018-09-14T16:01:51.270Z,18.80
2018-09-14T16:04:32.013Z,18.70
2018-09-14T16:07:12.562Z,18.60
2018-09-14T16:09:53.136Z,18.50
2018-09-14T16:12:34.027Z,18.50
2018-09-14T16:15:15.207Z,18.50
2018-09-14T16:17:55.787Z,18.50
2018-09-14T16:20:36.930Z,18.50
2018-09-14T16:23:17.537Z,18.40
2018-09-14T16:25:57.966Z,18.50
2018-09-14T16:28:38.863Z,18.70
2018-09-14T16:31:19.943Z,18.70
2018-09-14T16:34:00.674Z,18.70
2018-09-14T16:36:41.325Z,18.60
2018-09-14T16:39:22.286Z,18.50
2018-09-14T16:42:02.821Z,18.40
2018-09-14T16:44:43.543Z,18.50
2018-09-14T16:47:24.204Z,18.50
2018-09-14T16:50:04.810Z,18.50
2018-09-14T16:52:45.964Z,18.30
2018-09-14T16:55:26.613Z,18.20
2018-09-14T16:58:08.025Z,18.20
2018-09-14T17:00:48.710Z,18.10
2018-09-14T17:03:29.409Z,18.10
2018-09-14T17:06:10.026Z,17.90
2018-09-14T17:08:50.913Z,17.90
2018-09-14T17:11:31.421Z,17.90
2018-09-14T17:14:13.272Z,18.00
2018-09-14T17:16:54.159Z,17.90
2018-09-14T17:19:34.909Z,17.80
2018-09-14T17:22:15.521Z,17.80
2018-09-14T17:24:56.117Z,17.70
2018-09-14T17:27:37.883Z,17.70
2018-09-14T17:30:18.754Z,17.60
2018-09-14T17:32:59.687Z,17.60
2018-09-14T17:35:40.708Z,17.50
2018-09-14T17:38:22.041Z,17.50
2018-09-14T17:41:03.427Z,17.50
2018-09-14T17:43:43.964Z,17.40
2018-09-14T17:46:24.533Z,17.40
2018-09-14T17:49:05.423Z,17.40
2018-09-14T17:51:45.903Z,17.40
2018-09-14T17:54:27.012Z,17.40
2018-09-14T17:57:07.978Z,17.30
2018-09-14T17:59:48.590Z,17.20
2018-09-14T18:02:29.719Z,17.00
2018-09-14T18:05:10.385Z,16.80
2018-09-14T18:07:52.228Z,16.80
2018-09-14T18:10:33.227Z,16.60
2018-09-14T18:13:14.405Z,16.50
2018-09-14T18:15:56.299Z,16.50
2018-09-14T18:18:37.263Z,16.50
2018-09-14T18:21:17.909Z,16.40
2018-09-14T18:23:59.386Z,16.30
2018-09-14T18:26:40.160Z,16.20
2018-09-14T18:29:20.759Z,16.10
2018-09-14T18:32:01.693Z,16.00
2018-09-14T18:34:42.792Z,15.90
2018-09-14T18:37:23.569Z,15.70
2018-09-14T18:40:04.367Z,15.60
2018-09-14T18:42:44.895Z,15.50
2018-09-14T18:45:25.432Z,15.40
2018-09-14T18:48:06.020Z,15.40
2018-09-14T18:50:47.034Z,15.30
2018-09-14T18:53:28.670Z,15.20
2018-09-14T18:56:09.542Z,15.20
2018-09-14T18:58:50.948Z,15.10
2018-09-14T19:01:31.939Z,15.10
2018-09-14T19:04:12.971Z,15.10
2018-09-14T19:06:53.844Z,15.10
2018-09-14T19:09:34.600Z,15.00
2018-09-14T19:12:15.690Z,15.00
2018-09-14T19:14:56.252Z,14.90
2018-09-14T19:17:36.869Z,14.90
2018-09-14T19:20:18.045Z,14.90
2018-09-14T19:22:59.299Z,15.10
2018-09-14T19:25:40.108Z,15.20
2018-09-14T19:28:20.628Z,15.20
2018-09-14T19:31:01.132Z,15.30
2018-09-14T19:33:42.265Z,15.30
2018-09-14T19:36:23.061Z,15.30
2018-09-14T19:39:04.769Z,15.30
2018-09-14T19:41:45.602Z,15.30
2018-09-14T19:44:26.256Z,15.40
2018-09-14T19:47:07.036Z,15.40
2018-09-14T19:52:33.695Z,15.50
2018-09-14T19:55:14.773Z,15.70
2018-09-14T19:57:55.514Z,15.80
2018-09-14T20:00:36.898Z,15.80
2018-09-14T20:03:17.381Z,15.80
2018-09-14T20:05:57.821Z,15.80
2018-09-14T20:08:38.897Z,15.80
2018-09-14T20:11:19.790Z,15.80
2018-09-14T20:14:00.305Z,15.70
2018-09-14T20:16:41.506Z,15.50
2018-09-14T20:19:21.949Z,15.40
2018-09-14T20:22:02.521Z,15.40
2018-09-14T20:24:44.069Z,15.30
2018-09-14T20:27:24.614Z,15.30
2018-09-14T20:30:05.669Z,15.20
2018-09-14T20:32:46.321Z,15.10
2018-09-14T20:35:26.804Z,15.00
2018-09-14T20:38:08.903Z,15.00
2018-09-14T20:40:50.915Z,15.00
2018-09-14T20:43:32.756Z,15.00
2018-09-14T20:46:13.330Z,15.00
2018-09-14T20:48:53.898Z,15.00
2018-09-14T20:51:34.555Z,14.90
2018-09-14T20:54:15.425Z,14.80
2018-09-14T20:56:56.410Z,14.70
2018-09-14T20:59:37.077Z,14.60
2018-09-14T21:02:17.646Z,14.70
2018-09-14T21:04:58.066Z,14.70
2018-09-14T21:07:38.690Z,14.70
2018-09-14T21:10:19.479Z,14.60
2018-09-14T21:13:00.065Z,14.60
2018-09-14T21:15:42.472Z,14.60
2018-09-14T21:18:23.001Z,14.60
2018-09-14T21:21:04.325Z,14.60
2018-09-14T21:23:45.095Z,14.60
2018-09-14T21:26:26.293Z,14.70
2018-09-14T21:29:07.482Z,14.80
2018-09-14T21:31:48.199Z,14.90
2018-09-14T21:34:28.758Z,14.80
2018-09-14T21:37:09.765Z,14.70
2018-09-14T21:39:50.301Z,14.60
2018-09-14T21:42:31.249Z,14.60
2018-09-14T21:45:12.037Z,14.50
2018-09-14T21:47:52.602Z,14.40
2018-09-14T21:50:33.465Z,14.50
2018-09-14T21:53:13.916Z,14.50
2018-09-14T21:55:54.810Z,14.50
2018-09-14T21:58:35.964Z,14.60
2018-09-14T22:01:22.083Z,14.60
2018-09-14T22:04:02.650Z,14.60
2018-09-14T22:06:43.519Z,14.50
2018-09-14T22:09:24.134Z,14.40
2018-09-14T22:12:06.080Z,14.20
2018-09-14T22:14:46.918Z,14.20
2018-09-14T22:17:27.757Z,14.20
2018-09-14T22:20:08.541Z,14.20
2018-09-14T22:22:49.575Z,14.20
2018-09-14T22:25:30.984Z,14.30
2018-09-14T22:28:11.733Z,14.30
2018-09-14T22:30:52.868Z,14.20
2018-09-14T22:33:34.000Z,14.30
2018-09-14T22:36:15.125Z,14.30
2018-09-14T22:38:55.963Z,14.30
2018-09-14T22:41:36.721Z,14.40
2018-09-14T22:44:18.045Z,14.40
2018-09-14T22:46:58.634Z,14.50
2018-09-14T22:49:39.915Z,14.50
2018-09-14T22:52:20.786Z,14.60
2018-09-14T22:55:01.827Z,14.70
2018-09-14T22:57:42.902Z,14.70
2018-09-14T23:00:29.041Z,14.70
2018-09-14T23:03:09.874Z,14.60
2018-09-14T23:05:50.351Z,14.50
2018-09-14T23:08:30.996Z,14.60
2018-09-14T23:11:11.672Z,14.60
2018-09-14T23:13:52.150Z,14.60
2018-09-14T23:16:32.941Z,14.60
2018-09-14T23:19:13.395Z,14.50
2018-09-14T23:21:54.138Z,14.60
2018-09-14T23:24:35.341Z,14.50
2018-09-14T23:27:15.749Z,14.50
2018-09-14T23:29:56.757Z,14.60
2018-09-14T23:32:37.190Z,14.60
2018-09-14T23:35:17.677Z,14.60
2018-09-14T23:37:58.424Z,14.60
2018-09-14T23:40:39.618Z,14.50
2018-09-14T23:43:20.550Z,14.60
2018-09-14T23:46:01.172Z,14.60
2018-09-14T23:48:41.744Z,14.60
2018-09-14T23:51:22.834Z,14.60
2018-09-14T23:54:03.393Z,14.60
2018-09-14T23:56:44.801Z,14.50
2018-09-14T23:59:25.714Z,14.40
